WetterOnline ( https://www.wetteronline.de )

Wetter aktuell Boostedt

Aktuelles Wetter: Dörnick (28m)

6-stündlich | Neueste Meldungen
Ortszeit Temperatur Wetter
Fr, 30.09. 20:00 11.6° C wolkenlos
Fr, 30.09. 14:00 14.5° C bewölkt
Fr, 30.09. 8:00 9.5° C leichter Regen
Fr, 30.09. 2:00 9.9° C bedeckt
Do, 29.09. 20:00 10.1° C bewölkt
Do, 29.09. 14:00 9.8° C leichter Regen
Do, 29.09. 8:00 7.0° C bedeckt
Do, 29.09. 2:00 5.3° C bedeckt
Ortszeit Temperatur Wetter
Sa, 01.10. 0:00 10.8° C leicht bewölkt
Fr, 30.09. 23:50 10.8° C leicht bewölkt
Fr, 30.09. 23:40 10.7° C fast wolkenlos
Fr, 30.09. 23:30 11.1° C leicht bewölkt
Fr, 30.09. 23:20 11.1° C leicht bewölkt
Fr, 30.09. 23:10 11.1° C wolkig
Fr, 30.09. 23:00 11.1° C fast wolkenlos
Fr, 30.09. 22:30 11.2° C leicht bewölkt
Fr, 30.09. 22:00 11.5° C fast wolkenlos
Fr, 30.09. 21:30 11.7° C leicht bewölkt
Fr, 30.09. 21:00 11.8° C leicht bewölkt
Ortszeit Relative Feuchte Sichtweite
Fr, 30.09. 20:00 78% 45 km
Fr, 30.09. 14:00 72% 60 km
Fr, 30.09. 8:00 95% 5.0 km
Fr, 30.09. 2:00 95% 7 km
Do, 29.09. 20:00 95% 20 km
Do, 29.09. 14:00 93% 15 km
Do, 29.09. 8:00 94% 7 km
Do, 29.09. 2:00 98% 3.7 km
Ortszeit Relative Feuchte Sichtweite
Sa, 01.10. 0:00 75% 45 km
Fr, 30.09. 23:50 75% -
Fr, 30.09. 23:40 75% -
Fr, 30.09. 23:30 74% 50 km
Fr, 30.09. 23:20 74% -
Fr, 30.09. 23:10 74% -
Fr, 30.09. 23:00 75% 45 km
Fr, 30.09. 22:30 74% 45 km
Fr, 30.09. 22:00 75% 40 km
Fr, 30.09. 21:30 74% 50 km
Fr, 30.09. 21:00 75% 45 km
Ortszeit Niederschlagsmenge Niederschlagsart
Fr, 30.09. 20:00 0.1 l/m2 in 12 Std. -
Fr, 30.09. 14:00 0.1 l/m2 in 6 Std. Regen
Fr, 30.09. 8:00 0.1 l/m2 in 12 Std. Regen
Fr, 30.09. 2:00 0.1 l/m2 in 6 Std. Sprühregen
Do, 29.09. 20:00 2 l/m2 in 12 Std. Regen
Do, 29.09. 14:00 0.9 l/m2 in 6 Std. Regen
Do, 29.09. 8:00 0.0 l/m2 in 12 Std. -
Do, 29.09. 2:00 0.0 l/m2 in 6 Std. -
Ortszeit Niederschlagsmenge Niederschlagsart
Sa, 01.10. 0:00 0.0 l/m2 in 1 Std. -
Fr, 30.09. 23:50 keine Meldung -
Fr, 30.09. 23:40 keine Meldung -
Fr, 30.09. 23:30 0.0 l/m2 in 1 Std. -
Fr, 30.09. 23:20 keine Meldung -
Fr, 30.09. 23:10 keine Meldung -
Fr, 30.09. 23:00 0.0 l/m2 in 1 Std. -
Fr, 30.09. 22:30 0.0 l/m2 in 1 Std. -
Fr, 30.09. 22:00 0.0 l/m2 in 1 Std. -
Fr, 30.09. 21:30 0.0 l/m2 in 1 Std. -
Fr, 30.09. 21:00 0.0 l/m2 in 1 Std. -
Ortszeit Stärke Spitze Richtung
km/h Bft. km/h Grad Sektor
Fr, 30.09. 20:00 9 2 33 180° S
Fr, 30.09. 14:00 15 3 31 200° S
Fr, 30.09. 8:00 11 2 20 190° S
Fr, 30.09. 2:00 7 2 22 200° S
Do, 29.09. 20:00 11 2 32 220° SW
Do, 29.09. 14:00 14 3 22 220° SW
Do, 29.09. 8:00 7 2 14 230° SW
Do, 29.09. 2:00 4 1 7 240° SW
Ortszeit Stärke Spitze Richtung
km/h Bft. km/h Grad Sektor
Sa, 01.10. 0:00 15 3 28 170° S
Fr, 30.09. 23:50 15 3 - 170° S
Fr, 30.09. 23:40 14 3 - 170° S
Fr, 30.09. 23:30 17 3 28 170° S
Fr, 30.09. 23:20 17 3 - 170° S
Fr, 30.09. 23:10 14 3 - 170° S
Fr, 30.09. 23:00 13 3 24 170° S
Fr, 30.09. 22:30 13 3 22 180° S
Fr, 30.09. 22:00 15 3 22 180° S
Fr, 30.09. 21:30 13 3 20 180° S
Fr, 30.09. 21:00 11 2 20 180° S
Ortszeit Untergrenze Bedeckung Gattung
total tief tief mittel hoch
Fr, 30.09. 20:00 - 0/8 0/8 - - -
Fr, 30.09. 14:00 660 m 7/8 7/8 - - -
Fr, 30.09. 8:00 90 m 8/8 8/8 - - -
Fr, 30.09. 2:00 120 m 8/8 8/8 - - -
Do, 29.09. 20:00 180 m 7/8 7/8 - - -
Do, 29.09. 14:00 240 m 7/8 7/8 - - -
Do, 29.09. 8:00 2700 m 8/8 8/8 - - -
Do, 29.09. 2:00 5400 m 8/8 8/8 - - -
Ortszeit Bedeckungsgrad in Achtel und Wolkenuntergrenze
Sa, 01.10. 0:00 4(9000m)
Fr, 30.09. 23:50 4(9000m)
Fr, 30.09. 23:40 1
Fr, 30.09. 23:30 6(9000m)
Fr, 30.09. 23:20 6(9000m)
Fr, 30.09. 23:10 6
Fr, 30.09. 23:00 1(9000m)
Fr, 30.09. 22:30 2(2400m)
Fr, 30.09. 22:00 1(1800m)
Fr, 30.09. 21:30 2(1500m)
Fr, 30.09. 21:00 3(1500m)
Ortszeit Luftdruck NN (hPa) Tendenz (hPa in 3 Std.)
Fr, 30.09. 20:00 1009 0,0
Fr, 30.09. 14:00 1009 + 0,3
Fr, 30.09. 8:00 1008 + 1,3
Fr, 30.09. 2:00 1006 + 1,0
Do, 29.09. 20:00 1003 + 1,6
Do, 29.09. 14:00 1001 + 0,8
Do, 29.09. 8:00 999 + 0,5
Do, 29.09. 2:00 999 + 0,4
Ortszeit Luftdruck NN (hPa) Tendenz (hPa in 3 Std.)
Sa, 01.10. 0:00 1007 - 1,4
Fr, 30.09. 23:50 1007 keine Meldung
Fr, 30.09. 23:40 1007 keine Meldung
Fr, 30.09. 23:30 1007 - 1,2
Fr, 30.09. 23:20 1007 keine Meldung
Fr, 30.09. 23:10 1008 keine Meldung
Fr, 30.09. 23:00 1008 - 0,9
Fr, 30.09. 22:30 1008 - 0,8
Fr, 30.09. 22:00 1008 - 0,4
Fr, 30.09. 21:30 1008 - 0,2
Fr, 30.09. 21:00 1009 0,0
Ortszeit Schneehöhe (cm)
Fr, 30.09. 20:00 0
Fr, 30.09. 14:00 0
Fr, 30.09. 8:00 0
Fr, 30.09. 2:00 0
Do, 29.09. 20:00 0
Do, 29.09. 14:00 0
Do, 29.09. 8:00 0
Do, 29.09. 2:00 0
Ortszeit Schneehöhe (cm)
Sa, 01.10. 0:00 0
Fr, 30.09. 23:50 0
Fr, 30.09. 23:40 0
Fr, 30.09. 23:30 0
Fr, 30.09. 23:20 0
Fr, 30.09. 23:10 0
Fr, 30.09. 23:00 0
Fr, 30.09. 22:30 0
Fr, 30.09. 22:00 0
Fr, 30.09. 21:30 0
Fr, 30.09. 21:00 0
Link zu dieser Seite / Seite empfehlen

Das Wetter in ...